Terminal Aerodrome Forecast
Issued by NWS

Home | Current Version | Previous Version | Text Only | Print | Product List | Glossary On
Versions: 1 2 3 4 5 6 7 8 9 10 11 12 13 14 15
000
FTUS44 KEWX 131122
TAFSSF
TAF
KSSF 131122Z 1312/1412 00000KT P6SM BKN250
     FM131600 22008KT P6SM BKN200
     FM140000 VRB03KT P6SM BKN100=

USA.gov is the U.S. government's official web portal to all federal, state and local government web resources and services.